sensor_id;sensor_type;location;lat;lon;timestamp;P1;durP1;ratioP1;P2;durP2;ratioP2
58615;SDS011;44385;51.992;4.206;2023-03-08T00:02:12;5.13;;;1.23;;
58615;SDS011;44385;51.992;4.206;2023-03-08T00:04:38;2.50;;;0.70;;
58615;SDS011;44385;51.992;4.206;2023-03-08T00:07:07;4.90;;;0.95;;
58615;SDS011;44385;51.992;4.206;2023-03-08T00:09:34;2.33;;;1.17;;
58615;SDS011;44385;51.992;4.206;2023-03-08T00:12:02;4.22;;;1.40;;
58615;SDS011;44385;51.992;4.206;2023-03-08T00:14:28;3.10;;;1.50;;
58615;SDS011;44385;51.992;4.206;2023-03-08T00:16:56;3.80;;;0.90;;
58615;SDS011;44385;51.992;4.206;2023-03-08T00:19:22;2.85;;;0.95;;
58615;SDS011;44385;51.992;4.206;2023-03-08T00:21:49;4.07;;;1.00;;
58615;SDS011;44385;51.992;4.206;2023-03-08T00:24:15;4.78;;;1.17;;
58615;SDS011;44385;51.992;4.206;2023-03-08T00:26:43;4.47;;;1.40;;
58615;SDS011;44385;51.992;4.206;2023-03-08T00:29:10;4.05;;;1.00;;
58615;SDS011;44385;51.992;4.206;2023-03-08T00:31:36;3.58;;;0.90;;
58615;SDS011;44385;51.992;4.206;2023-03-08T00:34:04;1.70;;;0.80;;
58615;SDS011;44385;51.992;4.206;2023-03-08T00:36:31;2.80;;;1.00;;
58615;SDS011;44385;51.992;4.206;2023-03-08T00:38:57;1.85;;;0.80;;
58615;SDS011;44385;51.992;4.206;2023-03-08T00:41:23;4.00;;;1.05;;
58615;SDS011;44385;51.992;4.206;2023-03-08T00:43:50;4.53;;;1.13;;
58615;SDS011;44385;51.992;4.206;2023-03-08T00:46:16;5.43;;;1.05;;
58615;SDS011;44385;51.992;4.206;2023-03-08T00:48:42;7.40;;;1.05;;
58615;SDS011;44385;51.992;4.206;2023-03-08T00:51:11;2.58;;;1.05;;
58615;SDS011;44385;51.992;4.206;2023-03-08T00:53:38;2.15;;;0.80;;
58615;SDS011;44385;51.992;4.206;2023-03-08T00:56:05;0.60;;;0.60;;
58615;SDS011;44385;51.992;4.206;2023-03-08T00:58:32;2.92;;;1.05;;
58615;SDS011;44385;51.992;4.206;2023-03-08T01:00:58;3.25;;;0.88;;
58615;SDS011;44385;51.992;4.206;2023-03-08T01:03:25;4.15;;;0.85;;
58615;SDS011;44385;51.992;4.206;2023-03-08T01:05:52;3.15;;;1.02;;
58615;SDS011;44385;51.992;4.206;2023-03-08T01:08:21;4.05;;;0.93;;
58615;SDS011;44385;51.992;4.206;2023-03-08T01:10:48;3.67;;;0.80;;
58615;SDS011;44385;51.992;4.206;2023-03-08T01:13:15;4.60;;;1.20;;
58615;SDS011;44385;51.992;4.206;2023-03-08T01:15:41;3.88;;;1.27;;
58615;SDS011;44385;51.992;4.206;2023-03-08T01:18:07;2.42;;;1.10;;
58615;SDS011;44385;51.992;4.206;2023-03-08T01:20:34;3.13;;;0.98;;
58615;SDS011;44385;51.992;4.206;2023-03-08T01:23:00;1.63;;;0.77;;
58615;SDS011;44385;51.992;4.206;2023-03-08T01:25:28;0.80;;;0.63;;
58615;SDS011;44385;51.992;4.206;2023-03-08T01:27:54;5.40;;;1.35;;
58615;SDS011;44385;51.992;4.206;2023-03-08T01:30:21;2.55;;;0.70;;
58615;SDS011;44385;51.992;4.206;2023-03-08T01:32:47;1.73;;;0.80;;
58615;SDS011;44385;51.992;4.206;2023-03-08T01:35:14;2.55;;;0.73;;
58615;SDS011;44385;51.992;4.206;2023-03-08T01:37:40;8.05;;;1.10;;
58615;SDS011;44385;51.992;4.206;2023-03-08T01:40:07;2.80;;;1.20;;
58615;SDS011;44385;51.992;4.206;2023-03-08T01:42:37;5.03;;;1.00;;
58615;SDS011;44385;51.992;4.206;2023-03-08T01:45:05;3.70;;;1.23;;
58615;SDS011;44385;51.992;4.206;2023-03-08T01:47:51;3.28;;;1.73;;
58615;SDS011;44385;51.992;4.206;2023-03-08T01:50:17;4.45;;;1.30;;
58615;SDS011;44385;51.992;4.206;2023-03-08T01:52:45;3.67;;;1.33;;
58615;SDS011;44385;51.992;4.206;2023-03-08T01:55:13;5.97;;;1.37;;
58615;SDS011;44385;51.992;4.206;2023-03-08T01:57:42;3.88;;;1.23;;
58615;SDS011;44385;51.992;4.206;2023-03-08T02:00:11;7.00;;;1.30;;
58615;SDS011;44385;51.992;4.206;2023-03-08T02:02:39;2.13;;;1.10;;
58615;SDS011;44385;51.992;4.206;2023-03-08T02:05:06;2.97;;;1.23;;
58615;SDS011;44385;51.992;4.206;2023-03-08T02:07:33;2.38;;;1.13;;
58615;SDS011;44385;51.992;4.206;2023-03-08T02:09:59;8.85;;;1.70;;
58615;SDS011;44385;51.992;4.206;2023-03-08T02:12:26;4.32;;;1.25;;
58615;SDS011;44385;51.992;4.206;2023-03-08T02:14:54;6.00;;;1.48;;
58615;SDS011;44385;51.992;4.206;2023-03-08T02:17:21;3.50;;;1.48;;
58615;SDS011;44385;51.992;4.206;2023-03-08T02:19:48;5.88;;;1.40;;
58615;SDS011;44385;51.992;4.206;2023-03-08T02:22:16;2.45;;;1.40;;
58615;SDS011;44385;51.992;4.206;2023-03-08T02:24:44;3.85;;;1.60;;
58615;SDS011;44385;51.992;4.206;2023-03-08T02:27:12;2.88;;;1.60;;
58615;SDS011;44385;51.992;4.206;2023-03-08T02:29:39;4.07;;;1.65;;
58615;SDS011;44385;51.992;4.206;2023-03-08T02:32:06;3.53;;;2.20;;
58615;SDS011;44385;51.992;4.206;2023-03-08T02:34:33;4.60;;;2.80;;
58615;SDS011;44385;51.992;4.206;2023-03-08T02:36:59;4.60;;;3.00;;
58615;SDS011;44385;51.992;4.206;2023-03-08T02:39:25;4.65;;;3.22;;
58615;SDS011;44385;51.992;4.206;2023-03-08T02:41:53;3.47;;;2.58;;
58615;SDS011;44385;51.992;4.206;2023-03-08T02:44:20;4.70;;;3.20;;
58615;SDS011;44385;51.992;4.206;2023-03-08T02:46:47;4.95;;;3.17;;
58615;SDS011;44385;51.992;4.206;2023-03-08T02:49:14;5.90;;;2.88;;
58615;SDS011;44385;51.992;4.206;2023-03-08T02:51:40;4.32;;;2.55;;
58615;SDS011;44385;51.992;4.206;2023-03-08T02:54:06;4.10;;;3.08;;
58615;SDS011;44385;51.992;4.206;2023-03-08T02:56:33;4.82;;;3.20;;
58615;SDS011;44385;51.992;4.206;2023-03-08T02:59:02;7.00;;;2.88;;
58615;SDS011;44385;51.992;4.206;2023-03-08T03:01:28;6.22;;;3.17;;
58615;SDS011;44385;51.992;4.206;2023-03-08T03:03:55;7.57;;;3.13;;
58615;SDS011;44385;51.992;4.206;2023-03-08T03:06:22;8.15;;;3.47;;
58615;SDS011;44385;51.992;4.206;2023-03-08T03:08:48;6.00;;;3.78;;
58615;SDS011;44385;51.992;4.206;2023-03-08T03:11:15;6.43;;;3.50;;
58615;SDS011;44385;51.992;4.206;2023-03-08T03:13:42;7.68;;;3.88;;
58615;SDS011;44385;51.992;4.206;2023-03-08T03:16:10;9.70;;;3.60;;
58615;SDS011;44385;51.992;4.206;2023-03-08T03:18:37;5.40;;;3.50;;
58615;SDS011;44385;51.992;4.206;2023-03-08T03:21:04;5.00;;;3.42;;
58615;SDS011;44385;51.992;4.206;2023-03-08T03:23:31;5.90;;;3.50;;
58615;SDS011;44385;51.992;4.206;2023-03-08T03:26:02;5.82;;;3.00;;
58615;SDS011;44385;51.992;4.206;2023-03-08T03:28:28;4.50;;;3.03;;
58615;SDS011;44385;51.992;4.206;2023-03-08T03:30:54;3.75;;;3.33;;
58615;SDS011;44385;51.992;4.206;2023-03-08T03:33:22;3.70;;;3.03;;
58615;SDS011;44385;51.992;4.206;2023-03-08T03:35:49;6.60;;;3.63;;
58615;SDS011;44385;51.992;4.206;2023-03-08T03:38:15;6.00;;;3.33;;
58615;SDS011;44385;51.992;4.206;2023-03-08T03:40:41;6.03;;;3.42;;
58615;SDS011;44385;51.992;4.206;2023-03-08T03:43:08;6.65;;;3.60;;
58615;SDS011;44385;51.992;4.206;2023-03-08T03:45:34;8.15;;;4.00;;
58615;SDS011;44385;51.992;4.206;2023-03-08T03:48:01;5.43;;;3.35;;
58615;SDS011;44385;51.992;4.206;2023-03-08T03:50:28;7.25;;;3.50;;
58615;SDS011;44385;51.992;4.206;2023-03-08T03:52:55;6.47;;;3.88;;
58615;SDS011;44385;51.992;4.206;2023-03-08T03:55:21;7.38;;;4.32;;
58615;SDS011;44385;51.992;4.206;2023-03-08T03:57:48;8.35;;;5.13;;
58615;SDS011;44385;51.992;4.206;2023-03-08T04:00:15;6.57;;;3.67;;
58615;SDS011;44385;51.992;4.206;2023-03-08T04:02:41;8.32;;;4.32;;
58615;SDS011;44385;51.992;4.206;2023-03-08T04:05:08;12.27;;;5.38;;
58615;SDS011;44385;51.992;4.206;2023-03-08T04:07:35;12.05;;;5.72;;
58615;SDS011;44385;51.992;4.206;2023-03-08T04:10:02;10.57;;;6.63;;
58615;SDS011;44385;51.992;4.206;2023-03-08T04:12:28;9.35;;;5.22;;
58615;SDS011;44385;51.992;4.206;2023-03-08T04:14:54;12.25;;;6.45;;
58615;SDS011;44385;51.992;4.206;2023-03-08T04:17:21;12.77;;;7.28;;
58615;SDS011;44385;51.992;4.206;2023-03-08T04:19:47;16.60;;;7.43;;
58615;SDS011;44385;51.992;4.206;2023-03-08T04:22:14;12.98;;;7.25;;
58615;SDS011;44385;51.992;4.206;2023-03-08T04:24:42;13.18;;;7.10;;
58615;SDS011;44385;51.992;4.206;2023-03-08T04:27:08;11.27;;;7.75;;
58615;SDS011;44385;51.992;4.206;2023-03-08T04:29:34;14.07;;;8.90;;
58615;SDS011;44385;51.992;4.206;2023-03-08T04:32:01;12.95;;;8.40;;
58615;SDS011;44385;51.992;4.206;2023-03-08T04:34:27;13.18;;;8.70;;
58615;SDS011;44385;51.992;4.206;2023-03-08T04:36:54;14.10;;;9.57;;
58615;SDS011;44385;51.992;4.206;2023-03-08T04:39:20;19.08;;;11.77;;
58615;SDS011;44385;51.992;4.206;2023-03-08T04:41:48;16.55;;;10.20;;
58615;SDS011;44385;51.992;4.206;2023-03-08T04:44:15;23.08;;;12.32;;
58615;SDS011;44385;51.992;4.206;2023-03-08T04:46:41;20.17;;;12.32;;
58615;SDS011;44385;51.992;4.206;2023-03-08T04:49:07;19.52;;;12.68;;
58615;SDS011;44385;51.992;4.206;2023-03-08T04:51:34;25.00;;;14.35;;
58615;SDS011;44385;51.992;4.206;2023-03-08T04:54:00;21.52;;;14.15;;
58615;SDS011;44385;51.992;4.206;2023-03-08T04:56:28;22.88;;;14.18;;
58615;SDS011;44385;51.992;4.206;2023-03-08T04:58:56;23.17;;;13.82;;
58615;SDS011;44385;51.992;4.206;2023-03-08T05:01:22;24.33;;;15.27;;
58615;SDS011;44385;51.992;4.206;2023-03-08T05:03:49;24.13;;;15.13;;
58615;SDS011;44385;51.992;4.206;2023-03-08T05:06:16;23.73;;;14.57;;
58615;SDS011;44385;51.992;4.206;2023-03-08T05:08:43;26.02;;;15.05;;
58615;SDS011;44385;51.992;4.206;2023-03-08T05:11:09;22.33;;;15.32;;
58615;SDS011;44385;51.992;4.206;2023-03-08T05:13:36;25.38;;;15.82;;
58615;SDS011;44385;51.992;4.206;2023-03-08T05:16:05;29.20;;;17.88;;
58615;SDS011;44385;51.992;4.206;2023-03-08T05:18:32;26.83;;;16.80;;
58615;SDS011;44385;51.992;4.206;2023-03-08T05:20:59;28.20;;;16.77;;
58615;SDS011;44385;51.992;4.206;2023-03-08T05:23:26;30.45;;;17.90;;
58615;SDS011;44385;51.992;4.206;2023-03-08T05:25:53;30.40;;;16.80;;
58615;SDS011;44385;51.992;4.206;2023-03-08T05:28:20;28.42;;;17.02;;
58615;SDS011;44385;51.992;4.206;2023-03-08T05:30:47;24.58;;;14.20;;
58615;SDS011;44385;51.992;4.206;2023-03-08T05:33:15;21.27;;;13.95;;
58615;SDS011;44385;51.992;4.206;2023-03-08T05:35:42;24.52;;;14.10;;
58615;SDS011;44385;51.992;4.206;2023-03-08T05:38:08;24.85;;;14.95;;
58615;SDS011;44385;51.992;4.206;2023-03-08T05:40:36;23.88;;;13.13;;
58615;SDS011;44385;51.992;4.206;2023-03-08T05:43:02;24.80;;;15.35;;
58615;SDS011;44385;51.992;4.206;2023-03-08T05:45:29;25.63;;;14.95;;
58615;SDS011;44385;51.992;4.206;2023-03-08T05:47:55;22.92;;;14.52;;
58615;SDS011;44385;51.992;4.206;2023-03-08T05:50:23;22.10;;;13.20;;
58615;SDS011;44385;51.992;4.206;2023-03-08T05:52:49;24.42;;;16.02;;
58615;SDS011;44385;51.992;4.206;2023-03-08T05:55:16;24.58;;;15.75;;
58615;SDS011;44385;51.992;4.206;2023-03-08T05:57:42;29.35;;;17.58;;
58615;SDS011;44385;51.992;4.206;2023-03-08T06:02:38;27.42;;;18.13;;
58615;SDS011;44385;51.992;4.206;2023-03-08T06:05:04;32.10;;;17.30;;
58615;SDS011;44385;51.992;4.206;2023-03-08T06:07:32;27.50;;;16.85;;
58615;SDS011;44385;51.992;4.206;2023-03-08T06:09:59;22.90;;;17.02;;
58615;SDS011;44385;51.992;4.206;2023-03-08T06:12:25;27.25;;;16.23;;
58615;SDS011;44385;51.992;4.206;2023-03-08T06:14:52;29.67;;;17.00;;
58615;SDS011;44385;51.992;4.206;2023-03-08T06:17:18;24.80;;;16.27;;
58615;SDS011;44385;51.992;4.206;2023-03-08T06:19:44;25.75;;;16.45;;
58615;SDS011;44385;51.992;4.206;2023-03-08T06:22:14;28.42;;;16.80;;
58615;SDS011;44385;51.992;4.206;2023-03-08T06:24:42;29.65;;;16.98;;
58615;SDS011;44385;51.992;4.206;2023-03-08T06:27:08;28.98;;;17.10;;
58615;SDS011;44385;51.992;4.206;2023-03-08T06:29:34;27.92;;;17.75;;
58615;SDS011;44385;51.992;4.206;2023-03-08T06:32:01;34.67;;;20.98;;
58615;SDS011;44385;51.992;4.206;2023-03-08T06:34:27;28.50;;;19.20;;
58615;SDS011;44385;51.992;4.206;2023-03-08T06:36:54;37.00;;;21.85;;
58615;SDS011;44385;51.992;4.206;2023-03-08T06:39:23;34.60;;;22.88;;
58615;SDS011;44385;51.992;4.206;2023-03-08T06:41:52;36.58;;;24.52;;
58615;SDS011;44385;51.992;4.206;2023-03-08T06:44:18;35.53;;;22.30;;
58615;SDS011;44385;51.992;4.206;2023-03-08T06:46:45;37.80;;;24.52;;
58615;SDS011;44385;51.992;4.206;2023-03-08T06:49:12;40.78;;;25.20;;
58615;SDS011;44385;51.992;4.206;2023-03-08T06:51:38;43.08;;;25.27;;
58615;SDS011;44385;51.992;4.206;2023-03-08T06:54:04;37.30;;;23.20;;
58615;SDS011;44385;51.992;4.206;2023-03-08T06:56:32;41.30;;;26.55;;
58615;SDS011;44385;51.992;4.206;2023-03-08T06:58:59;50.33;;;30.20;;
58615;SDS011;44385;51.992;4.206;2023-03-08T07:01:26;52.22;;;31.55;;
58615;SDS011;44385;51.992;4.206;2023-03-08T07:03:52;53.13;;;31.67;;
58615;SDS011;44385;51.992;4.206;2023-03-08T07:06:18;57.00;;;32.78;;
58615;SDS011;44385;51.992;4.206;2023-03-08T07:08:45;54.75;;;33.95;;
58615;SDS011;44385;51.992;4.206;2023-03-08T07:11:13;59.15;;;33.33;;
58615;SDS011;44385;51.992;4.206;2023-03-08T07:13:39;63.78;;;35.70;;
58615;SDS011;44385;51.992;4.206;2023-03-08T07:16:09;61.65;;;34.72;;
58615;SDS011;44385;51.992;4.206;2023-03-08T07:18:36;62.15;;;35.20;;
58615;SDS011;44385;51.992;4.206;2023-03-08T07:21:03;58.70;;;33.85;;
58615;SDS011;44385;51.992;4.206;2023-03-08T07:23:29;68.13;;;36.25;;
58615;SDS011;44385;51.992;4.206;2023-03-08T07:25:56;68.63;;;36.05;;
58615;SDS011;44385;51.992;4.206;2023-03-08T07:28:22;60.42;;;34.00;;
58615;SDS011;44385;51.992;4.206;2023-03-08T07:30:49;65.45;;;33.88;;
58615;SDS011;44385;51.992;4.206;2023-03-08T07:33:18;62.00;;;34.75;;
58615;SDS011;44385;51.992;4.206;2023-03-08T07:35:44;56.08;;;32.97;;
58615;SDS011;44385;51.992;4.206;2023-03-08T07:38:11;58.05;;;33.03;;
58615;SDS011;44385;51.992;4.206;2023-03-08T07:40:37;59.45;;;32.13;;
58615;SDS011;44385;51.992;4.206;2023-03-08T07:43:04;55.22;;;30.80;;
58615;SDS011;44385;51.992;4.206;2023-03-08T07:45:31;56.90;;;32.17;;
58615;SDS011;44385;51.992;4.206;2023-03-08T07:47:57;57.20;;;31.60;;
58615;SDS011;44385;51.992;4.206;2023-03-08T07:50:25;51.28;;;28.90;;
58615;SDS011;44385;51.992;4.206;2023-03-08T07:52:51;53.53;;;29.52;;
58615;SDS011;44385;51.992;4.206;2023-03-08T07:55:17;50.30;;;27.85;;
58615;SDS011;44385;51.992;4.206;2023-03-08T07:57:45;49.30;;;28.70;;
58615;SDS011;44385;51.992;4.206;2023-03-08T08:00:12;51.80;;;27.35;;
58615;SDS011;44385;51.992;4.206;2023-03-08T08:02:38;54.95;;;27.02;;
58615;SDS011;44385;51.992;4.206;2023-03-08T08:05:05;49.05;;;26.70;;
58615;SDS011;44385;51.992;4.206;2023-03-08T08:07:36;46.22;;;26.52;;
58615;SDS011;44385;51.992;4.206;2023-03-08T08:10:02;45.47;;;25.58;;
58615;SDS011;44385;51.992;4.206;2023-03-08T08:12:29;41.20;;;22.45;;
58615;SDS011;44385;51.992;4.206;2023-03-08T08:14:55;42.88;;;23.38;;
58615;SDS011;44385;51.992;4.206;2023-03-08T08:17:23;40.42;;;22.33;;
58615;SDS011;44385;51.992;4.206;2023-03-08T08:19:50;36.90;;;21.08;;
58615;SDS011;44385;51.992;4.206;2023-03-08T08:22:16;36.15;;;20.02;;
58615;SDS011;44385;51.992;4.206;2023-03-08T08:24:44;39.88;;;21.50;;
58615;SDS011;44385;51.992;4.206;2023-03-08T08:27:10;40.45;;;20.67;;
58615;SDS011;44385;51.992;4.206;2023-03-08T08:29:37;36.60;;;20.17;;
58615;SDS011;44385;51.992;4.206;2023-03-08T08:32:03;36.22;;;20.35;;
58615;SDS011;44385;51.992;4.206;2023-03-08T08:34:30;31.63;;;21.10;;
58615;SDS011;44385;51.992;4.206;2023-03-08T08:36:56;35.30;;;20.70;;
58615;SDS011;44385;51.992;4.206;2023-03-08T08:39:23;37.53;;;21.58;;
58615;SDS011;44385;51.992;4.206;2023-03-08T08:41:50;36.17;;;20.45;;
58615;SDS011;44385;51.992;4.206;2023-03-08T08:44:17;36.65;;;21.38;;
58615;SDS011;44385;51.992;4.206;2023-03-08T08:46:43;42.05;;;21.02;;
58615;SDS011;44385;51.992;4.206;2023-03-08T08:49:09;40.85;;;22.38;;
58615;SDS011;44385;51.992;4.206;2023-03-08T08:51:36;38.05;;;20.83;;
58615;SDS011;44385;51.992;4.206;2023-03-08T08:54:02;38.08;;;21.80;;
58615;SDS011;44385;51.992;4.206;2023-03-08T08:56:29;36.05;;;22.35;;
58615;SDS011;44385;51.992;4.206;2023-03-08T08:58:58;33.15;;;19.48;;
58615;SDS011;44385;51.992;4.206;2023-03-08T09:01:26;34.17;;;18.35;;
58615;SDS011;44385;51.992;4.206;2023-03-08T09:03:53;28.17;;;17.17;;
58615;SDS011;44385;51.992;4.206;2023-03-08T09:06:20;28.40;;;17.23;;
58615;SDS011;44385;51.992;4.206;2023-03-08T09:08:48;32.25;;;17.92;;
58615;SDS011;44385;51.992;4.206;2023-03-08T09:11:14;28.00;;;16.70;;
58615;SDS011;44385;51.992;4.206;2023-03-08T09:13:41;29.88;;;17.88;;
58615;SDS011;44385;51.992;4.206;2023-03-08T09:16:16;28.30;;;17.10;;
58615;SDS011;44385;51.992;4.206;2023-03-08T09:18:42;28.42;;;16.17;;
58615;SDS011;44385;51.992;4.206;2023-03-08T09:21:09;28.73;;;16.38;;
58615;SDS011;44385;51.992;4.206;2023-03-08T09:23:35;25.55;;;15.20;;
58615;SDS011;44385;51.992;4.206;2023-03-08T09:26:02;29.33;;;16.58;;
58615;SDS011;44385;51.992;4.206;2023-03-08T09:28:30;21.65;;;12.27;;
58615;SDS011;44385;51.992;4.206;2023-03-08T09:30:56;22.67;;;13.63;;
58615;SDS011;44385;51.992;4.206;2023-03-08T09:33:24;24.60;;;14.82;;
58615;SDS011;44385;51.992;4.206;2023-03-08T09:35:54;23.00;;;13.57;;
58615;SDS011;44385;51.992;4.206;2023-03-08T09:40:48;19.58;;;10.85;;
58615;SDS011;44385;51.992;4.206;2023-03-08T09:43:19;17.48;;;10.02;;
58615;SDS011;44385;51.992;4.206;2023-03-08T09:45:50;15.10;;;9.25;;
58615;SDS011;44385;51.992;4.206;2023-03-08T09:48:18;17.25;;;10.82;;
58615;SDS011;44385;51.992;4.206;2023-03-08T09:50:47;17.40;;;11.00;;
58615;SDS011;44385;51.992;4.206;2023-03-08T09:53:23;15.10;;;9.88;;
58615;SDS011;44385;51.992;4.206;2023-03-08T09:55:55;16.20;;;10.18;;
58615;SDS011;44385;51.992;4.206;2023-03-08T09:58:24;12.88;;;9.18;;
58615;SDS011;44385;51.992;4.206;2023-03-08T10:00:53;13.38;;;8.25;;
58615;SDS011;44385;51.992;4.206;2023-03-08T10:03:28;10.82;;;7.15;;
58615;SDS011;44385;51.992;4.206;2023-03-08T10:05:59;10.75;;;7.28;;
58615;SDS011;44385;51.992;4.206;2023-03-08T10:08:30;13.25;;;7.75;;
58615;SDS011;44385;51.992;4.206;2023-03-08T10:10:58;11.23;;;7.82;;
58615;SDS011;44385;51.992;4.206;2023-03-08T10:13:29;12.60;;;7.97;;
58615;SDS011;44385;51.992;4.206;2023-03-08T10:15:57;12.77;;;8.23;;
58615;SDS011;44385;51.992;4.206;2023-03-08T10:18:27;10.68;;;7.25;;
58615;SDS011;44385;51.992;4.206;2023-03-08T10:20:55;10.75;;;6.95;;
58615;SDS011;44385;51.992;4.206;2023-03-08T10:23:23;11.63;;;7.63;;
58615;SDS011;44385;51.992;4.206;2023-03-08T10:25:50;10.15;;;7.65;;
58615;SDS011;44385;51.992;4.206;2023-03-08T10:28:17;11.60;;;6.55;;
58615;SDS011;44385;51.992;4.206;2023-03-08T10:30:45;12.27;;;7.00;;
58615;SDS011;44385;51.992;4.206;2023-03-08T10:33:15;9.98;;;6.40;;
58615;SDS011;44385;51.992;4.206;2023-03-08T10:35:53;9.52;;;6.70;;
58615;SDS011;44385;51.992;4.206;2023-03-08T10:38:21;9.30;;;6.05;;
58615;SDS011;44385;51.992;4.206;2023-03-08T10:40:57;9.57;;;6.60;;
58615;SDS011;44385;51.992;4.206;2023-03-08T10:43:24;9.15;;;6.60;;
58615;SDS011;44385;51.992;4.206;2023-03-08T10:45:56;9.65;;;6.38;;
58615;SDS011;44385;51.992;4.206;2023-03-08T10:48:23;10.98;;;6.93;;
58615;SDS011;44385;51.992;4.206;2023-03-08T10:50:56;10.25;;;6.85;;
58615;SDS011;44385;51.992;4.206;2023-03-08T10:53:23;12.38;;;8.00;;
58615;SDS011;44385;51.992;4.206;2023-03-08T10:55:54;12.88;;;8.40;;
58615;SDS011;44385;51.992;4.206;2023-03-08T10:58:27;14.25;;;9.30;;
58615;SDS011;44385;51.992;4.206;2023-03-08T11:00:55;14.02;;;8.52;;
58615;SDS011;44385;51.992;4.206;2023-03-08T11:03:22;13.55;;;8.13;;
58615;SDS011;44385;51.992;4.206;2023-03-08T11:05:56;12.00;;;7.97;;
58615;SDS011;44385;51.992;4.206;2023-03-08T11:08:23;14.10;;;8.70;;
58615;SDS011;44385;51.992;4.206;2023-03-08T11:11:05;11.98;;;8.70;;
58615;SDS011;44385;51.992;4.206;2023-03-08T11:13:32;12.45;;;8.38;;
58615;SDS011;44385;51.992;4.206;2023-03-08T11:16:02;11.43;;;7.93;;
58615;SDS011;44385;51.992;4.206;2023-03-08T11:18:34;14.90;;;9.15;;
58615;SDS011;44385;51.992;4.206;2023-03-08T11:21:09;14.10;;;9.23;;
58615;SDS011;44385;51.992;4.206;2023-03-08T11:23:38;12.82;;;8.65;;
58615;SDS011;44385;51.992;4.206;2023-03-08T11:26:11;11.80;;;9.18;;
58615;SDS011;44385;51.992;4.206;2023-03-08T11:28:47;10.93;;;8.30;;
58615;SDS011;44385;51.992;4.206;2023-03-08T11:31:18;12.85;;;8.70;;
58615;SDS011;44385;51.992;4.206;2023-03-08T11:33:49;14.23;;;8.18;;
58615;SDS011;44385;51.992;4.206;2023-03-08T11:36:18;9.30;;;7.00;;
58615;SDS011;44385;51.992;4.206;2023-03-08T11:38:47;11.07;;;7.70;;
58615;SDS011;44385;51.992;4.206;2023-03-08T11:41:20;11.88;;;7.95;;
58615;SDS011;44385;51.992;4.206;2023-03-08T11:43:54;11.55;;;8.80;;
58615;SDS011;44385;51.992;4.206;2023-03-08T11:46:25;11.02;;;7.65;;
58615;SDS011;44385;51.992;4.206;2023-03-08T11:49:06;10.40;;;7.72;;
58615;SDS011;44385;51.992;4.206;2023-03-08T11:51:39;11.60;;;8.52;;
58615;SDS011;44385;51.992;4.206;2023-03-08T11:54:11;11.40;;;7.63;;
58615;SDS011;44385;51.992;4.206;2023-03-08T11:56:43;11.27;;;7.63;;
58615;SDS011;44385;51.992;4.206;2023-03-08T11:59:12;11.23;;;7.97;;
58615;SDS011;44385;51.992;4.206;2023-03-08T12:01:44;13.75;;;8.68;;
58615;SDS011;44385;51.992;4.206;2023-03-08T12:04:12;11.38;;;8.18;;
58615;SDS011;44385;51.992;4.206;2023-03-08T12:06:40;11.57;;;7.47;;
58615;SDS011;44385;51.992;4.206;2023-03-08T12:09:11;11.02;;;8.13;;
58615;SDS011;44385;51.992;4.206;2023-03-08T12:11:39;12.50;;;7.88;;
58615;SDS011;44385;51.992;4.206;2023-03-08T12:14:11;10.20;;;7.72;;
58615;SDS011;44385;51.992;4.206;2023-03-08T12:16:43;10.45;;;7.38;;
58615;SDS011;44385;51.992;4.206;2023-03-08T12:19:13;10.82;;;7.65;;
58615;SDS011;44385;51.992;4.206;2023-03-08T12:21:43;12.23;;;8.85;;
58615;SDS011;44385;51.992;4.206;2023-03-08T12:24:14;13.18;;;7.95;;
58615;SDS011;44385;51.992;4.206;2023-03-08T12:26:44;12.18;;;7.45;;
58615;SDS011;44385;51.992;4.206;2023-03-08T12:29:14;11.20;;;8.65;;
58615;SDS011;44385;51.992;4.206;2023-03-08T12:31:43;11.77;;;7.53;;
58615;SDS011;44385;51.992;4.206;2023-03-08T12:34:13;11.77;;;8.18;;
58615;SDS011;44385;51.992;4.206;2023-03-08T12:36:40;11.27;;;7.80;;
58615;SDS011;44385;51.992;4.206;2023-03-08T12:39:08;12.90;;;8.32;;
58615;SDS011;44385;51.992;4.206;2023-03-08T12:41:35;12.73;;;7.93;;
58615;SDS011;44385;51.992;4.206;2023-03-08T12:44:02;11.65;;;7.90;;
58615;SDS011;44385;51.992;4.206;2023-03-08T12:49:18;13.80;;;9.35;;
58615;SDS011;44385;51.992;4.206;2023-03-08T12:51:53;13.05;;;8.45;;
58615;SDS011;44385;51.992;4.206;2023-03-08T12:54:21;12.65;;;8.38;;
58615;SDS011;44385;51.992;4.206;2023-03-08T12:56:48;13.70;;;8.70;;
58615;SDS011;44385;51.992;4.206;2023-03-08T12:59:24;14.45;;;10.07;;
58615;SDS011;44385;51.992;4.206;2023-03-08T13:01:58;13.68;;;9.80;;
58615;SDS011;44385;51.992;4.206;2023-03-08T13:04:27;16.17;;;10.30;;
58615;SDS011;44385;51.992;4.206;2023-03-08T13:07:02;12.60;;;8.40;;
58615;SDS011;44385;51.992;4.206;2023-03-08T13:12:00;15.07;;;10.18;;
58615;SDS011;44385;51.992;4.206;2023-03-08T13:14:37;17.75;;;10.98;;
58615;SDS011;44385;51.992;4.206;2023-03-08T13:19:47;14.55;;;10.15;;
58615;SDS011;44385;51.992;4.206;2023-03-08T13:22:16;14.93;;;10.52;;
58615;SDS011;44385;51.992;4.206;2023-03-08T13:24:45;16.52;;;11.55;;
58615;SDS011;44385;51.992;4.206;2023-03-08T13:27:16;14.90;;;10.70;;
58615;SDS011;44385;51.992;4.206;2023-03-08T13:29:44;14.48;;;10.32;;
58615;SDS011;44385;51.992;4.206;2023-03-08T13:32:12;17.77;;;11.73;;
58615;SDS011;44385;51.992;4.206;2023-03-08T13:34:40;16.00;;;11.52;;
58615;SDS011;44385;51.992;4.206;2023-03-08T13:37:20;17.15;;;12.70;;
58615;SDS011;44385;51.992;4.206;2023-03-08T13:39:52;19.98;;;13.38;;
58615;SDS011;44385;51.992;4.206;2023-03-08T13:42:19;17.75;;;12.20;;
58615;SDS011;44385;51.992;4.206;2023-03-08T13:44:48;20.77;;;13.18;;
58615;SDS011;44385;51.992;4.206;2023-03-08T13:47:18;19.77;;;13.25;;
58615;SDS011;44385;51.992;4.206;2023-03-08T13:49:46;23.55;;;13.40;;
58615;SDS011;44385;51.992;4.206;2023-03-08T13:52:14;19.20;;;12.88;;
58615;SDS011;44385;51.992;4.206;2023-03-08T13:54:43;20.27;;;13.55;;
58615;SDS011;44385;51.992;4.206;2023-03-08T13:57:16;18.98;;;12.07;;
58615;SDS011;44385;51.992;4.206;2023-03-08T13:59:46;18.02;;;12.45;;
58615;SDS011;44385;51.992;4.206;2023-03-08T14:04:41;19.27;;;12.25;;
58615;SDS011;44385;51.992;4.206;2023-03-08T14:07:13;21.23;;;13.13;;
58615;SDS011;44385;51.992;4.206;2023-03-08T14:09:43;26.00;;;13.93;;
58615;SDS011;44385;51.992;4.206;2023-03-08T14:12:13;20.58;;;13.45;;
58615;SDS011;44385;51.992;4.206;2023-03-08T14:14:41;22.38;;;12.60;;
58615;SDS011;44385;51.992;4.206;2023-03-08T14:17:12;26.10;;;13.15;;
58615;SDS011;44385;51.992;4.206;2023-03-08T14:19:43;22.30;;;13.85;;
58615;SDS011;44385;51.992;4.206;2023-03-08T14:22:10;22.40;;;12.65;;
58615;SDS011;44385;51.992;4.206;2023-03-08T14:24:37;22.98;;;14.10;;
58615;SDS011;44385;51.992;4.206;2023-03-08T14:27:26;24.83;;;14.00;;
58615;SDS011;44385;51.992;4.206;2023-03-08T14:29:59;23.58;;;12.68;;
58615;SDS011;44385;51.992;4.206;2023-03-08T14:32:27;22.52;;;13.35;;
58615;SDS011;44385;51.992;4.206;2023-03-08T14:35:02;23.30;;;12.80;;
58615;SDS011;44385;51.992;4.206;2023-03-08T14:37:29;29.50;;;13.75;;
58615;SDS011;44385;51.992;4.206;2023-03-08T14:40:10;24.35;;;13.90;;
58615;SDS011;44385;51.992;4.206;2023-03-08T14:42:42;24.17;;;13.57;;
58615;SDS011;44385;51.992;4.206;2023-03-08T14:45:16;24.20;;;13.30;;
58615;SDS011;44385;51.992;4.206;2023-03-08T14:47:47;26.50;;;13.10;;
58615;SDS011;44385;51.992;4.206;2023-03-08T14:50:17;25.50;;;13.55;;
58615;SDS011;44385;51.992;4.206;2023-03-08T14:52:45;27.13;;;14.48;;
58615;SDS011;44385;51.992;4.206;2023-03-08T14:55:18;21.77;;;12.13;;